createdAt,value
2022-12-08T00:01:32.690Z,44.78
2022-12-08T00:04:03.844Z,47.22
2022-12-08T00:06:48.206Z,45.83
2022-12-08T00:09:26.907Z,45.10
2022-12-08T00:12:00.866Z,43.72
2022-12-08T00:14:32.915Z,41.50
2022-12-08T00:17:04.016Z,46.72
2022-12-08T00:19:35.016Z,43.75
2022-12-08T00:22:05.894Z,44.00
2022-12-08T00:24:41.353Z,43.60
2022-12-08T00:27:13.929Z,43.45
2022-12-08T00:29:46.378Z,43.75
2022-12-08T00:32:16.673Z,40.42
2022-12-08T00:34:46.889Z,41.00
2022-12-08T00:37:17.443Z,41.70
2022-12-08T00:39:50.204Z,39.25
2022-12-08T00:42:20.301Z,44.97
2022-12-08T00:44:50.367Z,46.28
2022-12-08T00:47:24.820Z,44.42
2022-12-08T00:49:55.522Z,42.55
2022-12-08T00:52:25.556Z,43.47
2022-12-08T00:54:58.217Z,41.42
2022-12-08T00:57:28.637Z,44.83
2022-12-08T00:59:58.986Z,41.55
2022-12-08T01:02:29.154Z,43.88
2022-12-08T01:04:59.357Z,46.35
2022-12-08T01:07:29.744Z,48.42
2022-12-08T01:10:03.545Z,47.50
2022-12-08T01:12:33.982Z,44.88
2022-12-08T01:15:04.278Z,46.03
2022-12-08T01:17:34.427Z,43.65
2022-12-08T01:20:05.265Z,43.20
2022-12-08T01:22:38.073Z,44.63
2022-12-08T01:25:12.153Z,43.03
2022-12-08T01:27:43.018Z,43.55
2022-12-08T01:30:15.079Z,42.05
2022-12-08T01:32:45.264Z,46.25
2022-12-08T01:35:15.624Z,45.00
2022-12-08T01:37:45.694Z,47.90
2022-12-08T01:40:18.716Z,45.75
2022-12-08T01:42:48.963Z,49.33
2022-12-08T01:45:26.022Z,48.20
2022-12-08T01:48:00.774Z,47.70
2022-12-08T01:50:31.820Z,44.42
2022-12-08T01:53:05.128Z,43.83
2022-12-08T01:55:44.383Z,43.58
2022-12-08T01:58:20.025Z,42.90
2022-12-08T02:00:51.827Z,45.47
2022-12-08T02:03:29.206Z,46.42
2022-12-08T02:06:00.337Z,47.35
2022-12-08T02:08:31.541Z,45.08
2022-12-08T02:11:04.755Z,44.95
2022-12-08T02:13:35.974Z,42.50
2022-12-08T02:16:12.819Z,43.13
2022-12-08T02:19:29.115Z,45.67
2022-12-08T02:21:55.843Z,45.35
2022-12-08T02:24:36.432Z,42.75
2022-12-08T02:27:31.242Z,43.15
2022-12-08T02:30:28.335Z,41.45
2022-12-08T02:33:26.304Z,45.22
2022-12-08T02:36:03.116Z,49.92
2022-12-08T02:38:43.511Z,51.63
2022-12-08T02:41:24.063Z,53.35
2022-12-08T02:44:00.425Z,52.78
2022-12-08T02:46:36.163Z,50.30
2022-12-08T02:49:07.586Z,49.95
2022-12-08T02:51:42.093Z,45.95
2022-12-08T02:54:12.953Z,44.97
2022-12-08T02:57:09.860Z,42.85
2022-12-08T02:59:54.551Z,42.22
2022-12-08T03:02:48.195Z,40.50
2022-12-08T03:05:32.289Z,39.95
2022-12-08T03:10:43.866Z,40.90
2022-12-08T03:13:19.470Z,41.58
2022-12-08T03:15:54.233Z,40.95
2022-12-08T03:18:30.059Z,40.65
2022-12-08T03:21:00.836Z,39.65
2022-12-08T03:23:36.057Z,44.72
2022-12-08T03:26:12.540Z,43.53
2022-12-08T03:28:43.535Z,43.88
2022-12-08T03:31:16.328Z,41.05
2022-12-08T03:33:51.206Z,42.97
2022-12-08T03:36:22.768Z,41.95
2022-12-08T03:38:57.405Z,38.33
2022-12-08T03:41:27.770Z,40.50
2022-12-08T03:44:00.374Z,43.50
2022-12-08T03:46:32.275Z,44.28
2022-12-08T03:49:02.624Z,43.58
2022-12-08T03:51:33.587Z,37.63
2022-12-08T03:54:07.177Z,39.67
2022-12-08T03:56:39.299Z,39.17
2022-12-08T03:59:11.288Z,39.80
2022-12-08T04:01:41.352Z,41.42
2022-12-08T04:04:11.995Z,41.88
2022-12-08T04:06:43.393Z,42.28
2022-12-08T04:09:16.823Z,41.83
2022-12-08T04:11:47.261Z,42.92
2022-12-08T04:14:17.882Z,44.20
2022-12-08T04:16:48.395Z,45.28
2022-12-08T04:19:20.007Z,42.75
2022-12-08T04:21:50.799Z,43.10
2022-12-08T04:24:24.695Z,43.20
2022-12-08T04:29:24.885Z,44.28
2022-12-08T04:31:55.220Z,45.55
2022-12-08T04:34:25.522Z,49.38
2022-12-08T04:36:55.747Z,54.70
2022-12-08T04:39:28.920Z,55.85
2022-12-08T04:41:59.214Z,58.33
2022-12-08T04:44:29.453Z,56.05
2022-12-08T04:46:59.671Z,54.83
2022-12-08T04:49:30.175Z,55.30
2022-12-08T04:52:00.328Z,58.42
2022-12-08T04:54:33.079Z,56.72
2022-12-08T04:57:03.600Z,60.38
2022-12-08T04:59:33.898Z,56.88
2022-12-08T05:02:04.633Z,58.38
2022-12-08T05:04:36.053Z,56.17
2022-12-08T05:07:06.216Z,55.55
2022-12-08T05:09:40.061Z,59.40
2022-12-08T05:14:40.612Z,53.75
2022-12-08T05:17:10.871Z,54.63
2022-12-08T05:19:41.902Z,59.33
2022-12-08T05:22:13.352Z,56.72
2022-12-08T05:24:47.853Z,58.28
2022-12-08T05:27:18.946Z,57.50
2022-12-08T05:29:50.847Z,60.22
2022-12-08T05:32:21.182Z,57.95
2022-12-08T05:34:51.591Z,59.45
2022-12-08T05:37:22.156Z,58.10
2022-12-08T05:39:55.470Z,59.30
2022-12-08T05:42:25.844Z,58.33
2022-12-08T05:45:07.414Z,56.88
2022-12-08T05:47:37.985Z,59.97
2022-12-08T05:50:10.647Z,58.05
2022-12-08T05:52:42.071Z,58.35
2022-12-08T05:55:15.314Z,59.08
2022-12-08T05:57:45.879Z,61.83
2022-12-08T06:00:17.505Z,54.92
2022-12-08T06:02:47.928Z,59.17
2022-12-08T06:05:18.718Z,56.50
2022-12-08T06:07:50.078Z,52.42
2022-12-08T06:10:23.004Z,55.03
2022-12-08T06:12:53.513Z,54.75
2022-12-08T06:15:24.217Z,50.80
2022-12-08T06:17:54.573Z,47.10
2022-12-08T06:20:25.341Z,47.20
2022-12-08T06:22:55.971Z,45.72
2022-12-08T06:25:29.306Z,48.85
2022-12-08T06:28:00.826Z,50.63
2022-12-08T06:30:32.454Z,51.17
2022-12-08T06:33:05.364Z,50.03
2022-12-08T06:35:35.914Z,49.45
2022-12-08T06:38:06.200Z,44.40
2022-12-08T06:40:42.657Z,44.15
2022-12-08T06:43:14.519Z,39.45
2022-12-08T06:45:45.987Z,44.33
2022-12-08T06:48:16.676Z,38.03
2022-12-08T06:50:47.076Z,32.08
2022-12-08T06:53:18.434Z,32.65
2022-12-08T06:55:59.978Z,31.55
2022-12-08T06:58:30.937Z,29.13
2022-12-08T07:01:02.006Z,28.65
2022-12-08T07:03:32.488Z,30.55
2022-12-08T07:06:04.299Z,33.20
2022-12-08T07:08:35.081Z,28.73
2022-12-08T07:11:19.657Z,25.30
2022-12-08T07:13:51.650Z,24.50
2022-12-08T07:16:22.482Z,23.08
2022-12-08T07:18:53.322Z,23.33
2022-12-08T07:21:23.816Z,21.25
2022-12-08T07:23:57.833Z,22.77
2022-12-08T07:26:31.492Z,20.33
2022-12-08T07:29:04.043Z,19.73
2022-12-08T07:31:34.388Z,18.05
2022-12-08T07:34:04.990Z,17.02
2022-12-08T07:36:36.503Z,18.42
2022-12-08T07:39:07.399Z,18.30
2022-12-08T07:41:40.404Z,18.83
2022-12-08T07:44:11.019Z,18.30
2022-12-08T07:46:41.445Z,20.02
2022-12-08T07:49:12.020Z,20.17
2022-12-08T07:51:42.511Z,22.27
2022-12-08T07:54:15.927Z,20.48
2022-12-08T07:56:49.303Z,22.05
2022-12-08T07:59:19.694Z,21.63
2022-12-08T08:02:11.737Z,20.05
2022-12-08T08:04:41.762Z,19.60
2022-12-08T08:07:12.187Z,22.55
2022-12-08T08:09:42.681Z,22.05
2022-12-08T08:12:31.324Z,22.88
2022-12-08T08:15:02.774Z,22.50
2022-12-08T08:17:33.712Z,21.02
2022-12-08T08:20:04.597Z,20.30
2022-12-08T08:22:35.778Z,22.42
2022-12-08T08:25:06.352Z,20.30
2022-12-08T08:27:39.469Z,20.88
2022-12-08T08:30:16.568Z,21.48
2022-12-08T08:32:50.867Z,21.08
2022-12-08T08:35:21.386Z,21.05
2022-12-08T08:37:51.738Z,20.50
2022-12-08T08:40:21.942Z,21.45
2022-12-08T08:42:54.803Z,21.75
2022-12-08T08:45:26.188Z,22.27
2022-12-08T08:47:56.670Z,21.27
2022-12-08T08:50:32.857Z,20.17
2022-12-08T08:53:06.290Z,21.17
2022-12-08T08:55:36.857Z,21.67
2022-12-08T08:58:09.932Z,21.38
2022-12-08T09:00:46.209Z,23.80
2022-12-08T09:03:16.783Z,22.80
2022-12-08T09:05:47.085Z,21.92
2022-12-08T09:08:17.866Z,22.50
2022-12-08T09:10:48.327Z,23.02
2022-12-08T09:13:22.525Z,24.40
2022-12-08T09:15:55.139Z,22.17
2022-12-08T09:18:25.542Z,22.10
2022-12-08T09:20:56.470Z,25.05
2022-12-08T09:23:32.117Z,23.17
2022-12-08T09:26:07.250Z,20.88
2022-12-08T09:28:46.812Z,20.92
2022-12-08T09:31:17.981Z,22.92
2022-12-08T09:33:49.032Z,21.42
2022-12-08T09:36:19.693Z,22.95
2022-12-08T09:38:51.651Z,22.65
2022-12-08T09:41:36.802Z,21.15
2022-12-08T09:44:45.425Z,22.38
2022-12-08T09:47:24.236Z,21.02
2022-12-08T09:50:03.559Z,20.85
2022-12-08T09:52:41.161Z,19.63
2022-12-08T09:55:23.493Z,21.67
2022-12-08T09:58:02.658Z,22.67
2022-12-08T10:00:36.760Z,21.45
2022-12-08T10:03:07.098Z,23.95
2022-12-08T10:05:44.861Z,22.23
2022-12-08T10:08:23.710Z,22.67
2022-12-08T10:10:59.989Z,22.30
2022-12-08T10:13:39.575Z,23.35
2022-12-08T10:16:29.754Z,22.20
2022-12-08T10:19:05.985Z,22.73
2022-12-08T10:21:36.889Z,22.92
2022-12-08T10:24:14.775Z,24.15
2022-12-08T10:26:45.215Z,22.55
2022-12-08T10:29:16.874Z,22.65
2022-12-08T10:31:50.091Z,24.73
2022-12-08T10:34:23.728Z,23.38
2022-12-08T10:36:56.284Z,24.85
2022-12-08T10:39:34.594Z,24.88
2022-12-08T10:42:10.809Z,23.60
2022-12-08T10:44:57.863Z,24.13
2022-12-08T10:47:33.331Z,26.60
2022-12-08T10:50:16.006Z,22.98
2022-12-08T10:52:46.539Z,23.58
2022-12-08T10:55:22.237Z,23.50
2022-12-08T10:57:53.747Z,22.70
2022-12-08T11:00:27.915Z,22.30
2022-12-08T11:03:03.924Z,23.73
2022-12-08T11:05:37.211Z,23.52
2022-12-08T11:08:09.007Z,22.50
2022-12-08T11:10:46.635Z,20.85
2022-12-08T11:13:26.424Z,22.15
2022-12-08T11:15:59.338Z,22.35
2022-12-08T11:18:42.386Z,22.83
2022-12-08T11:21:16.375Z,22.35
2022-12-08T11:23:50.928Z,24.40
2022-12-08T11:26:30.364Z,21.80
2022-12-08T11:29:00.825Z,21.70
2022-12-08T11:31:35.016Z,22.08
2022-12-08T11:34:10.074Z,20.23
2022-12-08T11:36:42.771Z,22.30
2022-12-08T11:39:16.265Z,21.55
2022-12-08T11:41:49.660Z,22.40
2022-12-08T11:44:30.636Z,21.42
2022-12-08T11:47:04.606Z,21.25
2022-12-08T11:49:40.705Z,19.45
2022-12-08T11:52:24.624Z,20.23
2022-12-08T11:55:01.397Z,21.55
2022-12-08T11:57:33.479Z,20.10
2022-12-08T12:00:07.832Z,21.00
2022-12-08T12:02:49.131Z,21.00
2022-12-08T12:06:03.385Z,26.23
2022-12-08T12:08:43.411Z,20.52
2022-12-08T12:11:41.946Z,19.13
2022-12-08T12:14:29.913Z,19.17
2022-12-08T12:17:08.789Z,18.15
2022-12-08T12:19:42.833Z,18.75
2022-12-08T12:22:19.847Z,20.33
2022-12-08T12:24:53.345Z,25.02
2022-12-08T12:27:28.766Z,17.83
2022-12-08T12:30:02.360Z,21.73
2022-12-08T12:32:48.923Z,18.63
2022-12-08T12:35:27.317Z,18.45
2022-12-08T12:38:05.669Z,20.08
2022-12-08T12:40:44.990Z,19.98
2022-12-08T12:43:32.530Z,18.95
2022-12-08T12:46:32.802Z,22.98
2022-12-08T12:49:32.719Z,27.58
2022-12-08T12:52:03.096Z,28.00
2022-12-08T12:54:36.050Z,24.17
2022-12-08T12:57:24.991Z,22.53
2022-12-08T13:00:11.470Z,19.88
2022-12-08T13:02:49.974Z,21.75
2022-12-08T13:05:25.033Z,20.45
2022-12-08T13:07:59.250Z,21.48
2022-12-08T13:10:34.533Z,32.28
2022-12-08T13:13:10.748Z,23.77
2022-12-08T13:15:43.736Z,25.27
2022-12-08T13:18:22.898Z,21.50
2022-12-08T13:20:56.745Z,19.50
2022-12-08T13:26:27.089Z,19.70
2022-12-08T13:29:25.551Z,21.60
2022-12-08T13:31:57.286Z,19.13
2022-12-08T13:34:37.819Z,20.63
2022-12-08T13:37:28.579Z,20.40
2022-12-08T13:40:04.320Z,20.98
2022-12-08T13:42:47.299Z,20.02
2022-12-08T13:48:35.115Z,19.90
2022-12-08T13:53:34.173Z,22.38
2022-12-08T13:57:10.790Z,20.33
2022-12-08T13:59:49.537Z,21.77
2022-12-08T14:02:31.300Z,20.23
2022-12-08T14:05:18.238Z,18.70
2022-12-08T14:07:51.928Z,19.13
2022-12-08T14:10:27.859Z,21.35
2022-12-08T14:13:02.877Z,20.00
2022-12-08T14:15:38.739Z,19.33
2022-12-08T14:18:26.618Z,20.80
2022-12-08T14:21:21.634Z,19.67
2022-12-08T14:23:52.407Z,19.85
2022-12-08T14:26:23.525Z,20.63
2022-12-08T14:28:58.217Z,18.60
2022-12-08T14:31:32.404Z,19.88
2022-12-08T14:34:02.912Z,20.02
2022-12-08T14:36:34.335Z,21.20
2022-12-08T14:39:05.918Z,22.30
2022-12-08T14:41:36.794Z,22.13
2022-12-08T14:44:27.823Z,22.63
2022-12-08T14:47:11.744Z,21.90
2022-12-08T14:49:44.768Z,19.88
2022-12-08T14:52:17.804Z,20.73
2022-12-08T14:54:48.858Z,20.53
2022-12-08T14:57:22.111Z,21.88
2022-12-08T14:59:53.658Z,21.80
2022-12-08T15:02:35.516Z,21.05
2022-12-08T15:05:13.748Z,21.27
2022-12-08T15:07:50.402Z,21.70
2022-12-08T15:10:29.047Z,26.55
2022-12-08T15:13:09.894Z,23.75
2022-12-08T15:15:53.088Z,22.00
2022-12-08T15:18:35.257Z,23.20
2022-12-08T15:21:10.004Z,21.65
2022-12-08T15:23:45.897Z,24.52
2022-12-08T15:26:23.489Z,29.30
2022-12-08T15:28:53.992Z,29.65
2022-12-08T15:31:25.239Z,27.75
2022-12-08T15:33:58.490Z,28.05
2022-12-08T15:36:29.227Z,25.60
2022-12-08T15:38:59.614Z,27.08
2022-12-08T15:41:30.076Z,26.15
2022-12-08T15:44:00.369Z,26.23
2022-12-08T15:46:30.950Z,25.40
2022-12-08T15:49:04.300Z,25.08
2022-12-08T15:51:37.356Z,24.73
2022-12-08T15:54:07.959Z,25.27
2022-12-08T15:56:50.606Z,26.25
2022-12-08T15:59:29.627Z,27.55
2022-12-08T16:02:00.002Z,26.27
2022-12-08T16:07:28.335Z,25.10
2022-12-08T16:10:00.320Z,28.23
2022-12-08T16:15:59.209Z,29.67
2022-12-08T16:18:30.510Z,25.38
2022-12-08T16:21:22.422Z,27.33
2022-12-08T16:23:58.034Z,37.10
2022-12-08T16:27:28.477Z,50.05
2022-12-08T16:29:23.675Z,95.78
2022-12-08T16:31:54.170Z,64.43
2022-12-08T16:34:24.672Z,46.50
2022-12-08T16:36:57.290Z,35.40
2022-12-08T16:39:27.660Z,32.78
2022-12-08T16:42:10.079Z,29.42
2022-12-08T16:44:44.050Z,28.58
2022-12-08T16:47:15.194Z,28.38
2022-12-08T16:49:48.180Z,28.08
2022-12-08T16:52:20.921Z,27.13
2022-12-08T16:54:50.927Z,26.52
2022-12-08T16:57:21.393Z,27.95
2022-12-08T16:59:51.713Z,29.02
2022-12-08T17:02:24.009Z,31.52
2022-12-08T17:04:54.451Z,33.85
2022-12-08T17:07:28.858Z,35.33
2022-12-08T17:09:59.111Z,33.63
2022-12-08T17:12:29.305Z,29.98
2022-12-08T17:14:59.379Z,27.85
2022-12-08T17:17:29.690Z,27.63
2022-12-08T17:20:00.017Z,28.58
2022-12-08T17:22:33.165Z,29.38
2022-12-08T17:25:04.442Z,32.80
2022-12-08T17:27:35.407Z,32.25
2022-12-08T17:30:06.008Z,31.20
2022-12-08T17:32:36.480Z,30.88
2022-12-08T17:35:07.022Z,32.38
2022-12-08T17:37:44.215Z,32.03
2022-12-08T17:40:15.124Z,36.05
2022-12-08T17:42:47.309Z,34.40
2022-12-08T17:45:18.124Z,33.08
2022-12-08T17:47:48.452Z,34.97
2022-12-08T17:50:18.703Z,34.25
2022-12-08T17:52:53.733Z,38.50
2022-12-08T17:55:24.186Z,40.33
2022-12-08T17:57:54.467Z,38.22
2022-12-08T18:00:26.400Z,39.63
2022-12-08T18:02:56.835Z,39.92
2022-12-08T18:05:27.415Z,37.60
2022-12-08T18:08:02.130Z,39.53
2022-12-08T18:10:32.658Z,39.63
2022-12-08T18:13:03.071Z,40.40
2022-12-08T18:15:38.985Z,37.05
2022-12-08T18:18:09.975Z,41.33
2022-12-08T18:20:42.585Z,39.35
2022-12-08T18:23:15.977Z,38.00
2022-12-08T18:25:47.450Z,44.85
2022-12-08T18:28:20.079Z,44.63
2022-12-08T18:30:51.300Z,46.05
2022-12-08T18:33:24.405Z,44.38
2022-12-08T18:35:54.819Z,41.13
2022-12-08T18:38:27.819Z,40.53
2022-12-08T18:40:57.894Z,38.17
2022-12-08T18:43:27.954Z,38.72
2022-12-08T18:46:04.736Z,38.92
2022-12-08T18:48:34.811Z,38.20
2022-12-08T18:51:05.982Z,39.17
2022-12-08T18:53:39.826Z,39.15
2022-12-08T18:58:40.680Z,37.25
2022-12-08T19:01:17.369Z,37.50
2022-12-08T19:04:05.028Z,39.25
2022-12-08T19:06:41.317Z,38.50
2022-12-08T19:09:16.144Z,39.30
2022-12-08T19:11:47.169Z,40.75
2022-12-08T19:14:21.265Z,40.72
2022-12-08T19:16:54.819Z,40.58
2022-12-08T19:19:25.045Z,40.72
2022-12-08T19:21:55.498Z,44.78
2022-12-08T19:24:29.093Z,43.38
2022-12-08T19:26:59.300Z,42.50
2022-12-08T19:29:29.718Z,42.22
2022-12-08T19:32:00.675Z,40.60
2022-12-08T19:34:31.088Z,41.60
2022-12-08T19:37:01.597Z,40.53
2022-12-08T19:39:46.759Z,40.88
2022-12-08T19:42:32.099Z,41.40
2022-12-08T19:45:07.707Z,44.15
2022-12-08T19:47:38.187Z,43.97
2022-12-08T19:50:25.388Z,44.95
2022-12-08T19:53:05.062Z,43.83
2022-12-08T19:55:39.661Z,43.65
2022-12-08T19:58:10.963Z,43.33
2022-12-08T20:00:54.217Z,45.35
2022-12-08T20:03:28.755Z,45.77
2022-12-08T20:05:59.700Z,46.17
2022-12-08T20:08:32.781Z,43.88
2022-12-08T20:11:17.377Z,42.78
2022-12-08T20:13:53.668Z,41.25
2022-12-08T20:16:24.300Z,43.58
2022-12-08T20:18:56.437Z,42.70
2022-12-08T20:21:41.339Z,43.63
2022-12-08T20:24:14.288Z,44.67
2022-12-08T20:26:48.247Z,44.25
2022-12-08T20:29:21.680Z,45.22
2022-12-08T20:31:51.893Z,43.97
2022-12-08T20:34:22.965Z,46.90
2022-12-08T20:36:53.922Z,46.15
2022-12-08T20:39:25.642Z,50.40
2022-12-08T20:42:00.873Z,50.38
2022-12-08T20:44:31.729Z,51.17
2022-12-08T20:47:15.251Z,47.70
2022-12-08T20:50:08.738Z,55.13
2022-12-08T20:52:41.826Z,52.70
2022-12-08T20:55:32.353Z,50.13
2022-12-08T20:58:12.968Z,46.97
2022-12-08T21:01:18.254Z,46.63
2022-12-08T21:03:52.882Z,44.55
2022-12-08T21:06:27.809Z,45.08
2022-12-08T21:08:58.188Z,47.03
2022-12-08T21:11:31.736Z,44.65
2022-12-08T21:14:04.819Z,46.50
2022-12-08T21:16:34.924Z,45.20
2022-12-08T21:19:10.275Z,43.20
2022-12-08T21:21:41.069Z,43.58
2022-12-08T21:24:34.389Z,43.97
2022-12-08T21:27:16.748Z,40.83
2022-12-08T21:29:53.831Z,42.28
2022-12-08T21:32:29.965Z,40.17
2022-12-08T21:35:00.948Z,43.08
2022-12-08T21:37:31.103Z,41.70
2022-12-08T21:40:01.386Z,42.40
2022-12-08T21:42:43.962Z,46.60
2022-12-08T21:45:22.662Z,49.60
2022-12-08T21:48:12.270Z,42.03
2022-12-08T21:55:21.680Z,42.47
2022-12-08T21:58:05.906Z,43.38
2022-12-08T22:00:39.643Z,46.72
2022-12-08T22:05:40.599Z,44.42
2022-12-08T22:08:11.223Z,44.30
2022-12-08T22:10:41.662Z,44.67
2022-12-08T22:13:12.284Z,46.00
2022-12-08T22:16:05.852Z,43.78
2022-12-08T22:18:37.450Z,44.85
2022-12-08T22:21:17.200Z,42.38
2022-12-08T22:23:58.713Z,44.60
2022-12-08T22:26:30.192Z,43.65
2022-12-08T22:29:08.468Z,41.78
2022-12-08T22:31:41.669Z,41.92
2022-12-08T22:34:12.469Z,44.78
2022-12-08T22:36:42.654Z,43.20
2022-12-08T22:39:21.444Z,42.70
2022-12-08T22:41:57.742Z,42.53
2022-12-08T22:44:29.337Z,44.28
2022-12-08T22:47:02.953Z,43.42
2022-12-08T22:53:57.016Z,40.58
2022-12-08T23:00:37.978Z,40.35
2022-12-08T23:03:17.791Z,42.88
2022-12-08T23:09:44.594Z,44.33
2022-12-08T23:12:14.660Z,45.00
2022-12-08T23:14:44.663Z,45.72
2022-12-08T23:17:14.770Z,47.17
2022-12-08T23:19:47.929Z,49.05
2022-12-08T23:22:18.159Z,51.65
2022-12-08T23:24:48.203Z,52.03
2022-12-08T23:27:18.286Z,53.92
2022-12-08T23:29:48.373Z,56.60
2022-12-08T23:32:18.620Z,54.97
2022-12-08T23:34:51.437Z,54.05
2022-12-08T23:37:21.870Z,53.60
2022-12-08T23:42:40.624Z,49.80
2022-12-08T23:45:12.536Z,50.58
2022-12-08T23:47:42.761Z,50.97
2022-12-08T23:50:15.550Z,50.90
2022-12-08T23:52:45.887Z,52.22
2022-12-08T23:55:16.149Z,50.22
2022-12-08T23:57:46.880Z,46.22
